sensor_id;sensor_type;location;lat;lon;timestamp;P1;durP1;ratioP1;P2;durP2;ratioP2
50932;SDS011;36921;49.006;9.292;2023-03-05T00:01:07;46.88;;;15.75;;
50932;SDS011;36921;49.006;9.292;2023-03-05T00:03:34;44.83;;;17.42;;
50932;SDS011;36921;49.006;9.292;2023-03-05T00:05:59;38.10;;;15.70;;
50932;SDS011;36921;49.006;9.292;2023-03-05T00:08:25;44.25;;;17.63;;
50932;SDS011;36921;49.006;9.292;2023-03-05T00:10:55;41.00;;;15.93;;
50932;SDS011;36921;49.006;9.292;2023-03-05T00:13:28;45.10;;;17.52;;
50932;SDS011;36921;49.006;9.292;2023-03-05T00:15:54;49.05;;;17.15;;
50932;SDS011;36921;49.006;9.292;2023-03-05T00:18:20;44.70;;;16.27;;
50932;SDS011;36921;49.006;9.292;2023-03-05T00:20:45;42.88;;;16.50;;
50932;SDS011;36921;49.006;9.292;2023-03-05T00:23:11;42.67;;;16.48;;
50932;SDS011;36921;49.006;9.292;2023-03-05T00:25:36;43.67;;;16.05;;
50932;SDS011;36921;49.006;9.292;2023-03-05T00:28:02;39.95;;;16.35;;
50932;SDS011;36921;49.006;9.292;2023-03-05T00:30:28;44.85;;;17.02;;
50932;SDS011;36921;49.006;9.292;2023-03-05T00:32:55;42.85;;;16.67;;
50932;SDS011;36921;49.006;9.292;2023-03-05T00:35:20;41.58;;;17.15;;
50932;SDS011;36921;49.006;9.292;2023-03-05T00:37:45;54.33;;;17.30;;
50932;SDS011;36921;49.006;9.292;2023-03-05T00:40:11;54.85;;;17.77;;
50932;SDS011;36921;49.006;9.292;2023-03-05T00:42:36;47.45;;;16.88;;
50932;SDS011;36921;49.006;9.292;2023-03-05T00:45:06;45.80;;;17.55;;
50932;SDS011;36921;49.006;9.292;2023-03-05T00:47:32;43.17;;;17.25;;
50932;SDS011;36921;49.006;9.292;2023-03-05T00:49:58;43.47;;;18.27;;
50932;SDS011;36921;49.006;9.292;2023-03-05T00:52:24;46.13;;;17.30;;
50932;SDS011;36921;49.006;9.292;2023-03-05T00:54:49;49.65;;;18.20;;
50932;SDS011;36921;49.006;9.292;2023-03-05T00:57:14;46.42;;;17.85;;
50932;SDS011;36921;49.006;9.292;2023-03-05T00:59:40;53.70;;;18.65;;
50932;SDS011;36921;49.006;9.292;2023-03-05T01:02:05;40.80;;;16.73;;
50932;SDS011;36921;49.006;9.292;2023-03-05T01:04:31;50.47;;;19.40;;
50932;SDS011;36921;49.006;9.292;2023-03-05T01:06:57;46.47;;;16.83;;
50932;SDS011;36921;49.006;9.292;2023-03-05T01:09:23;45.75;;;17.75;;
50932;SDS011;36921;49.006;9.292;2023-03-05T01:11:51;44.50;;;16.35;;
50932;SDS011;36921;49.006;9.292;2023-03-05T01:14:17;53.63;;;17.38;;
50932;SDS011;36921;49.006;9.292;2023-03-05T01:16:43;41.17;;;16.25;;
50932;SDS011;36921;49.006;9.292;2023-03-05T01:19:09;49.63;;;18.73;;
50932;SDS011;36921;49.006;9.292;2023-03-05T01:21:35;45.92;;;17.42;;
50932;SDS011;36921;49.006;9.292;2023-03-05T01:24:01;47.30;;;17.15;;
50932;SDS011;36921;49.006;9.292;2023-03-05T01:26:27;49.50;;;17.70;;
50932;SDS011;36921;49.006;9.292;2023-03-05T01:28:52;45.83;;;17.92;;
50932;SDS011;36921;49.006;9.292;2023-03-05T01:31:17;50.53;;;18.35;;
50932;SDS011;36921;49.006;9.292;2023-03-05T01:33:43;45.00;;;18.35;;
50932;SDS011;36921;49.006;9.292;2023-03-05T01:36:10;49.53;;;19.77;;
50932;SDS011;36921;49.006;9.292;2023-03-05T01:38:40;55.55;;;19.15;;
50932;SDS011;36921;49.006;9.292;2023-03-05T01:41:07;50.88;;;18.15;;
50932;SDS011;36921;49.006;9.292;2023-03-05T01:43:33;48.28;;;20.17;;
50932;SDS011;36921;49.006;9.292;2023-03-05T01:48:47;47.20;;;18.77;;
50932;SDS011;36921;49.006;9.292;2023-03-05T01:51:17;50.90;;;18.70;;
50932;SDS011;36921;49.006;9.292;2023-03-05T01:53:44;45.65;;;17.80;;
50932;SDS011;36921;49.006;9.292;2023-03-05T01:56:10;46.00;;;17.67;;
50932;SDS011;36921;49.006;9.292;2023-03-05T01:58:36;50.15;;;18.25;;
50932;SDS011;36921;49.006;9.292;2023-03-05T02:01:03;42.60;;;17.27;;
50932;SDS011;36921;49.006;9.292;2023-03-05T02:03:29;43.75;;;17.50;;
50932;SDS011;36921;49.006;9.292;2023-03-05T02:05:57;49.80;;;18.13;;
50932;SDS011;36921;49.006;9.292;2023-03-05T02:08:23;48.15;;;18.15;;
50932;SDS011;36921;49.006;9.292;2023-03-05T02:10:49;42.63;;;17.05;;
50932;SDS011;36921;49.006;9.292;2023-03-05T02:13:22;46.15;;;17.42;;
50932;SDS011;36921;49.006;9.292;2023-03-05T02:15:49;44.38;;;16.33;;
50932;SDS011;36921;49.006;9.292;2023-03-05T02:18:17;36.30;;;15.50;;
50932;SDS011;36921;49.006;9.292;2023-03-05T02:23:13;43.17;;;17.45;;
50932;SDS011;36921;49.006;9.292;2023-03-05T02:25:39;44.97;;;17.15;;
50932;SDS011;36921;49.006;9.292;2023-03-05T02:30:40;44.40;;;17.25;;
50932;SDS011;36921;49.006;9.292;2023-03-05T02:33:05;44.40;;;17.35;;
50932;SDS011;36921;49.006;9.292;2023-03-05T02:35:30;38.38;;;15.65;;
50932;SDS011;36921;49.006;9.292;2023-03-05T02:37:56;46.95;;;18.30;;
50932;SDS011;36921;49.006;9.292;2023-03-05T02:40:21;39.10;;;17.80;;
50932;SDS011;36921;49.006;9.292;2023-03-05T02:42:47;42.75;;;16.08;;
50932;SDS011;36921;49.006;9.292;2023-03-05T02:45:13;45.05;;;16.65;;
50932;SDS011;36921;49.006;9.292;2023-03-05T02:47:39;49.85;;;17.30;;
50932;SDS011;36921;49.006;9.292;2023-03-05T02:50:05;44.40;;;16.88;;
50932;SDS011;36921;49.006;9.292;2023-03-05T02:52:32;49.42;;;17.63;;
50932;SDS011;36921;49.006;9.292;2023-03-05T02:54:57;43.22;;;18.05;;
50932;SDS011;36921;49.006;9.292;2023-03-05T02:57:23;44.35;;;16.60;;
50932;SDS011;36921;49.006;9.292;2023-03-05T02:59:48;47.63;;;16.88;;
50932;SDS011;36921;49.006;9.292;2023-03-05T03:02:14;41.50;;;15.73;;
50932;SDS011;36921;49.006;9.292;2023-03-05T03:04:40;47.65;;;16.23;;
50932;SDS011;36921;49.006;9.292;2023-03-05T03:07:06;40.30;;;15.73;;
50932;SDS011;36921;49.006;9.292;2023-03-05T03:09:32;38.75;;;17.73;;
50932;SDS011;36921;49.006;9.292;2023-03-05T03:11:59;41.45;;;16.58;;
50932;SDS011;36921;49.006;9.292;2023-03-05T03:14:25;48.08;;;17.83;;
50932;SDS011;36921;49.006;9.292;2023-03-05T03:16:51;42.95;;;16.95;;
50932;SDS011;36921;49.006;9.292;2023-03-05T03:19:16;43.35;;;16.15;;
50932;SDS011;36921;49.006;9.292;2023-03-05T03:21:41;39.78;;;16.15;;
50932;SDS011;36921;49.006;9.292;2023-03-05T03:24:06;41.55;;;17.42;;
50932;SDS011;36921;49.006;9.292;2023-03-05T03:26:32;47.70;;;16.90;;
50932;SDS011;36921;49.006;9.292;2023-03-05T03:28:57;46.28;;;16.15;;
50932;SDS011;36921;49.006;9.292;2023-03-05T03:31:23;41.10;;;16.65;;
50932;SDS011;36921;49.006;9.292;2023-03-05T03:33:48;40.90;;;16.10;;
50932;SDS011;36921;49.006;9.292;2023-03-05T03:36:14;44.67;;;16.60;;
50932;SDS011;36921;49.006;9.292;2023-03-05T03:38:40;39.45;;;17.60;;
50932;SDS011;36921;49.006;9.292;2023-03-05T03:41:06;45.22;;;16.95;;
50932;SDS011;36921;49.006;9.292;2023-03-05T03:43:32;44.03;;;17.10;;
50932;SDS011;36921;49.006;9.292;2023-03-05T03:45:58;43.47;;;16.80;;
50932;SDS011;36921;49.006;9.292;2023-03-05T03:48:24;44.50;;;17.25;;
50932;SDS011;36921;49.006;9.292;2023-03-05T03:50:49;46.33;;;17.25;;
50932;SDS011;36921;49.006;9.292;2023-03-05T03:53:15;45.63;;;16.63;;
50932;SDS011;36921;49.006;9.292;2023-03-05T03:55:41;43.28;;;16.50;;
50932;SDS011;36921;49.006;9.292;2023-03-05T03:58:08;50.03;;;16.23;;
50932;SDS011;36921;49.006;9.292;2023-03-05T04:00:34;45.45;;;16.20;;
50932;SDS011;36921;49.006;9.292;2023-03-05T04:02:59;44.60;;;15.38;;
50932;SDS011;36921;49.006;9.292;2023-03-05T04:05:25;41.42;;;15.95;;
50932;SDS011;36921;49.006;9.292;2023-03-05T04:07:50;39.80;;;14.90;;
50932;SDS011;36921;49.006;9.292;2023-03-05T04:10:15;50.20;;;16.10;;
50932;SDS011;36921;49.006;9.292;2023-03-05T04:12:41;47.17;;;16.75;;
50932;SDS011;36921;49.006;9.292;2023-03-05T04:15:07;39.92;;;15.95;;
50932;SDS011;36921;49.006;9.292;2023-03-05T04:17:34;41.05;;;17.60;;
50932;SDS011;36921;49.006;9.292;2023-03-05T04:19:59;44.97;;;16.45;;
50932;SDS011;36921;49.006;9.292;2023-03-05T04:22:25;34.55;;;15.95;;
50932;SDS011;36921;49.006;9.292;2023-03-05T04:24:50;45.67;;;16.48;;
50932;SDS011;36921;49.006;9.292;2023-03-05T04:27:15;44.63;;;15.57;;
50932;SDS011;36921;49.006;9.292;2023-03-05T04:29:41;53.17;;;17.13;;
50932;SDS011;36921;49.006;9.292;2023-03-05T04:32:06;44.85;;;17.55;;
50932;SDS011;36921;49.006;9.292;2023-03-05T04:34:31;39.95;;;17.15;;
50932;SDS011;36921;49.006;9.292;2023-03-05T04:36:57;45.85;;;16.77;;
50932;SDS011;36921;49.006;9.292;2023-03-05T04:39:22;42.20;;;16.92;;
50932;SDS011;36921;49.006;9.292;2023-03-05T04:41:48;50.45;;;18.50;;
50932;SDS011;36921;49.006;9.292;2023-03-05T04:44:13;42.08;;;17.60;;
50932;SDS011;36921;49.006;9.292;2023-03-05T04:46:39;38.58;;;16.63;;
50932;SDS011;36921;49.006;9.292;2023-03-05T04:49:05;47.22;;;17.42;;
50932;SDS011;36921;49.006;9.292;2023-03-05T04:51:30;49.83;;;17.42;;
50932;SDS011;36921;49.006;9.292;2023-03-05T04:53:55;40.85;;;17.33;;
50932;SDS011;36921;49.006;9.292;2023-03-05T04:56:21;44.58;;;16.65;;
50932;SDS011;36921;49.006;9.292;2023-03-05T04:58:46;38.58;;;16.70;;
50932;SDS011;36921;49.006;9.292;2023-03-05T05:01:12;43.35;;;16.80;;
50932;SDS011;36921;49.006;9.292;2023-03-05T05:03:37;44.58;;;16.38;;
50932;SDS011;36921;49.006;9.292;2023-03-05T05:06:03;43.85;;;15.95;;
50932;SDS011;36921;49.006;9.292;2023-03-05T05:08:28;39.75;;;16.30;;
50932;SDS011;36921;49.006;9.292;2023-03-05T05:11:04;52.25;;;18.15;;
50932;SDS011;36921;49.006;9.292;2023-03-05T05:13:31;44.80;;;16.40;;
50932;SDS011;36921;49.006;9.292;2023-03-05T05:15:57;45.58;;;17.70;;
50932;SDS011;36921;49.006;9.292;2023-03-05T05:18:23;40.80;;;15.68;;
50932;SDS011;36921;49.006;9.292;2023-03-05T05:20:50;48.22;;;15.68;;
50932;SDS011;36921;49.006;9.292;2023-03-05T05:23:16;42.22;;;17.67;;
50932;SDS011;36921;49.006;9.292;2023-03-05T05:25:41;44.03;;;17.30;;
50932;SDS011;36921;49.006;9.292;2023-03-05T05:28:07;45.17;;;16.77;;
50932;SDS011;36921;49.006;9.292;2023-03-05T05:30:34;45.47;;;16.95;;
50932;SDS011;36921;49.006;9.292;2023-03-05T05:32:59;45.17;;;18.20;;
50932;SDS011;36921;49.006;9.292;2023-03-05T05:35:24;43.20;;;17.13;;
50932;SDS011;36921;49.006;9.292;2023-03-05T05:37:50;46.88;;;17.27;;
50932;SDS011;36921;49.006;9.292;2023-03-05T05:40:15;42.05;;;16.48;;
50932;SDS011;36921;49.006;9.292;2023-03-05T05:42:40;44.17;;;17.23;;
50932;SDS011;36921;49.006;9.292;2023-03-05T05:45:06;39.90;;;16.33;;
50932;SDS011;36921;49.006;9.292;2023-03-05T05:47:31;52.28;;;17.58;;
50932;SDS011;36921;49.006;9.292;2023-03-05T05:49:57;45.92;;;16.55;;
50932;SDS011;36921;49.006;9.292;2023-03-05T05:52:22;43.45;;;16.02;;
50932;SDS011;36921;49.006;9.292;2023-03-05T05:54:48;44.22;;;15.15;;
50932;SDS011;36921;49.006;9.292;2023-03-05T05:57:13;42.85;;;15.82;;
50932;SDS011;36921;49.006;9.292;2023-03-05T05:59:39;48.20;;;15.90;;
50932;SDS011;36921;49.006;9.292;2023-03-05T06:02:04;42.92;;;15.95;;
50932;SDS011;36921;49.006;9.292;2023-03-05T06:04:31;41.47;;;15.20;;
50932;SDS011;36921;49.006;9.292;2023-03-05T06:06:57;36.78;;;15.75;;
50932;SDS011;36921;49.006;9.292;2023-03-05T06:09:23;40.50;;;16.25;;
50932;SDS011;36921;49.006;9.292;2023-03-05T06:11:49;35.75;;;15.13;;
50932;SDS011;36921;49.006;9.292;2023-03-05T06:14:14;43.63;;;16.55;;
50932;SDS011;36921;49.006;9.292;2023-03-05T06:16:39;40.28;;;16.92;;
50932;SDS011;36921;49.006;9.292;2023-03-05T06:19:05;41.28;;;15.73;;
50932;SDS011;36921;49.006;9.292;2023-03-05T06:21:30;49.80;;;21.10;;
50932;SDS011;36921;49.006;9.292;2023-03-05T06:23:56;53.47;;;19.30;;
50932;SDS011;36921;49.006;9.292;2023-03-05T06:26:23;48.97;;;19.58;;
50932;SDS011;36921;49.006;9.292;2023-03-05T06:28:49;51.17;;;18.77;;
50932;SDS011;36921;49.006;9.292;2023-03-05T06:31:16;50.50;;;19.45;;
50932;SDS011;36921;49.006;9.292;2023-03-05T06:33:43;50.97;;;17.77;;
50932;SDS011;36921;49.006;9.292;2023-03-05T06:36:10;42.90;;;16.85;;
50932;SDS011;36921;49.006;9.292;2023-03-05T06:38:37;50.63;;;18.00;;
50932;SDS011;36921;49.006;9.292;2023-03-05T06:41:03;46.47;;;17.45;;
50932;SDS011;36921;49.006;9.292;2023-03-05T06:43:31;53.83;;;19.55;;
50932;SDS011;36921;49.006;9.292;2023-03-05T06:46:07;49.85;;;17.98;;
50932;SDS011;36921;49.006;9.292;2023-03-05T06:48:36;50.72;;;17.75;;
50932;SDS011;36921;49.006;9.292;2023-03-05T06:51:01;49.22;;;16.35;;
50932;SDS011;36921;49.006;9.292;2023-03-05T06:53:27;48.15;;;18.02;;
50932;SDS011;36921;49.006;9.292;2023-03-05T06:55:52;52.40;;;18.20;;
50932;SDS011;36921;49.006;9.292;2023-03-05T06:58:18;44.53;;;17.75;;
50932;SDS011;36921;49.006;9.292;2023-03-05T07:00:44;40.67;;;16.00;;
50932;SDS011;36921;49.006;9.292;2023-03-05T07:03:10;37.58;;;13.52;;
50932;SDS011;36921;49.006;9.292;2023-03-05T07:05:39;41.08;;;13.32;;
50932;SDS011;36921;49.006;9.292;2023-03-05T07:10:31;44.10;;;14.60;;
50932;SDS011;36921;49.006;9.292;2023-03-05T07:12:56;45.35;;;15.43;;
50932;SDS011;36921;49.006;9.292;2023-03-05T07:15:22;33.72;;;13.27;;
50932;SDS011;36921;49.006;9.292;2023-03-05T07:17:48;34.53;;;14.40;;
50932;SDS011;36921;49.006;9.292;2023-03-05T07:20:13;35.13;;;14.40;;
50932;SDS011;36921;49.006;9.292;2023-03-05T07:22:39;44.38;;;14.52;;
50932;SDS011;36921;49.006;9.292;2023-03-05T07:25:04;35.85;;;12.52;;
50932;SDS011;36921;49.006;9.292;2023-03-05T07:27:33;42.47;;;15.43;;
50932;SDS011;36921;49.006;9.292;2023-03-05T07:29:59;41.67;;;15.77;;
50932;SDS011;36921;49.006;9.292;2023-03-05T07:32:25;42.03;;;13.75;;
50932;SDS011;36921;49.006;9.292;2023-03-05T07:34:51;40.45;;;13.68;;
50932;SDS011;36921;49.006;9.292;2023-03-05T07:37:16;40.00;;;13.35;;
50932;SDS011;36921;49.006;9.292;2023-03-05T07:39:41;39.90;;;13.30;;
50932;SDS011;36921;49.006;9.292;2023-03-05T07:42:07;43.65;;;14.27;;
50932;SDS011;36921;49.006;9.292;2023-03-05T07:44:32;40.38;;;13.13;;
50932;SDS011;36921;49.006;9.292;2023-03-05T07:46:57;33.00;;;12.25;;
50932;SDS011;36921;49.006;9.292;2023-03-05T07:49:27;31.67;;;12.02;;
50932;SDS011;36921;49.006;9.292;2023-03-05T07:51:52;38.70;;;12.95;;
50932;SDS011;36921;49.006;9.292;2023-03-05T07:54:18;37.70;;;13.45;;
50932;SDS011;36921;49.006;9.292;2023-03-05T07:56:43;31.70;;;12.93;;
50932;SDS011;36921;49.006;9.292;2023-03-05T07:59:11;34.78;;;12.90;;
50932;SDS011;36921;49.006;9.292;2023-03-05T08:01:37;42.40;;;14.40;;
50932;SDS011;36921;49.006;9.292;2023-03-05T08:04:03;38.17;;;13.95;;
50932;SDS011;36921;49.006;9.292;2023-03-05T08:06:39;38.70;;;13.90;;
50932;SDS011;36921;49.006;9.292;2023-03-05T08:09:07;39.47;;;14.23;;
50932;SDS011;36921;49.006;9.292;2023-03-05T08:11:36;45.35;;;14.82;;
50932;SDS011;36921;49.006;9.292;2023-03-05T08:14:01;40.83;;;15.10;;
50932;SDS011;36921;49.006;9.292;2023-03-05T08:16:28;39.42;;;16.08;;
50932;SDS011;36921;49.006;9.292;2023-03-05T08:18:54;41.88;;;15.63;;
50932;SDS011;36921;49.006;9.292;2023-03-05T08:21:23;44.40;;;15.43;;
50932;SDS011;36921;49.006;9.292;2023-03-05T08:26:57;43.30;;;16.17;;
50932;SDS011;36921;49.006;9.292;2023-03-05T08:29:23;40.28;;;15.68;;
50932;SDS011;36921;49.006;9.292;2023-03-05T08:31:49;43.70;;;14.57;;
50932;SDS011;36921;49.006;9.292;2023-03-05T08:34:15;34.60;;;14.15;;
50932;SDS011;36921;49.006;9.292;2023-03-05T08:37:04;38.83;;;15.13;;
50932;SDS011;36921;49.006;9.292;2023-03-05T08:39:30;41.33;;;15.43;;
50932;SDS011;36921;49.006;9.292;2023-03-05T08:41:55;37.75;;;13.77;;
50932;SDS011;36921;49.006;9.292;2023-03-05T08:44:20;46.05;;;14.38;;
50932;SDS011;36921;49.006;9.292;2023-03-05T08:46:46;42.92;;;14.70;;
50932;SDS011;36921;49.006;9.292;2023-03-05T08:49:11;38.67;;;14.40;;
50932;SDS011;36921;49.006;9.292;2023-03-05T08:51:36;39.58;;;14.60;;
50932;SDS011;36921;49.006;9.292;2023-03-05T08:54:01;42.65;;;15.00;;
50932;SDS011;36921;49.006;9.292;2023-03-05T08:56:30;43.83;;;15.15;;
50932;SDS011;36921;49.006;9.292;2023-03-05T08:59:11;33.63;;;13.23;;
50932;SDS011;36921;49.006;9.292;2023-03-05T09:01:37;32.28;;;10.75;;
50932;SDS011;36921;49.006;9.292;2023-03-05T09:04:02;33.60;;;11.55;;
50932;SDS011;36921;49.006;9.292;2023-03-05T09:06:28;33.60;;;12.18;;
50932;SDS011;36921;49.006;9.292;2023-03-05T09:08:53;31.83;;;11.27;;
50932;SDS011;36921;49.006;9.292;2023-03-05T09:11:19;31.02;;;11.73;;
50932;SDS011;36921;49.006;9.292;2023-03-05T09:13:44;29.95;;;11.63;;
50932;SDS011;36921;49.006;9.292;2023-03-05T09:16:11;40.10;;;12.60;;
50932;SDS011;36921;49.006;9.292;2023-03-05T09:18:39;35.67;;;12.45;;
50932;SDS011;36921;49.006;9.292;2023-03-05T09:21:06;33.30;;;12.50;;
50932;SDS011;36921;49.006;9.292;2023-03-05T09:23:32;37.22;;;11.90;;
50932;SDS011;36921;49.006;9.292;2023-03-05T09:25:58;31.33;;;12.02;;
50932;SDS011;36921;49.006;9.292;2023-03-05T09:28:23;34.15;;;11.40;;
50932;SDS011;36921;49.006;9.292;2023-03-05T09:30:49;32.03;;;11.23;;
50932;SDS011;36921;49.006;9.292;2023-03-05T09:33:14;32.67;;;11.82;;
50932;SDS011;36921;49.006;9.292;2023-03-05T09:35:39;30.95;;;12.43;;
50932;SDS011;36921;49.006;9.292;2023-03-05T09:38:05;37.47;;;12.95;;
50932;SDS011;36921;49.006;9.292;2023-03-05T09:40:31;34.13;;;12.77;;
50932;SDS011;36921;49.006;9.292;2023-03-05T09:46:05;26.77;;;10.15;;
50932;SDS011;36921;49.006;9.292;2023-03-05T09:51:39;40.42;;;12.73;;
50932;SDS011;36921;49.006;9.292;2023-03-05T09:54:11;33.28;;;12.93;;
50932;SDS011;36921;49.006;9.292;2023-03-05T09:56:45;34.53;;;12.38;;
50932;SDS011;36921;49.006;9.292;2023-03-05T10:01:57;36.42;;;12.68;;
50932;SDS011;36921;49.006;9.292;2023-03-05T10:04:41;33.35;;;11.57;;
50932;SDS011;36921;49.006;9.292;2023-03-05T10:07:11;30.35;;;12.20;;
50932;SDS011;36921;49.006;9.292;2023-03-05T10:09:44;31.77;;;11.70;;
50932;SDS011;36921;49.006;9.292;2023-03-05T10:12:25;28.42;;;11.27;;
50932;SDS011;36921;49.006;9.292;2023-03-05T10:14:52;31.75;;;12.23;;
50932;SDS011;36921;49.006;9.292;2023-03-05T10:28:15;28.05;;;11.40;;
50932;SDS011;36921;49.006;9.292;2023-03-05T10:33:22;27.48;;;10.35;;
50932;SDS011;36921;49.006;9.292;2023-03-05T10:36:10;31.25;;;11.48;;
50932;SDS011;36921;49.006;9.292;2023-03-05T10:43:51;27.35;;;11.70;;
50932;SDS011;36921;49.006;9.292;2023-03-05T10:46:40;26.42;;;10.98;;
50932;SDS011;36921;49.006;9.292;2023-03-05T10:49:17;27.02;;;10.63;;
50932;SDS011;36921;49.006;9.292;2023-03-05T10:51:48;26.75;;;11.05;;
50932;SDS011;36921;49.006;9.292;2023-03-05T10:54:18;26.27;;;10.38;;
50932;SDS011;36921;49.006;9.292;2023-03-05T10:59:56;27.15;;;11.30;;
50932;SDS011;36921;49.006;9.292;2023-03-05T11:02:31;25.88;;;10.27;;
50932;SDS011;36921;49.006;9.292;2023-03-05T11:04:57;26.90;;;11.27;;
50932;SDS011;36921;49.006;9.292;2023-03-05T11:10:02;23.15;;;11.18;;
50932;SDS011;36921;49.006;9.292;2023-03-05T11:12:34;30.30;;;12.10;;
50932;SDS011;36921;49.006;9.292;2023-03-05T11:25:52;26.95;;;10.65;;
50932;SDS011;36921;49.006;9.292;2023-03-05T11:30:59;27.95;;;10.95;;
50932;SDS011;36921;49.006;9.292;2023-03-05T11:33:40;25.13;;;11.10;;
50932;SDS011;36921;49.006;9.292;2023-03-05T11:36:26;24.63;;;10.82;;
50932;SDS011;36921;49.006;9.292;2023-03-05T11:39:08;25.27;;;11.40;;
50932;SDS011;36921;49.006;9.292;2023-03-05T11:44:16;22.45;;;10.65;;
50932;SDS011;36921;49.006;9.292;2023-03-05T11:46:47;25.17;;;11.32;;
50932;SDS011;36921;49.006;9.292;2023-03-05T11:49:19;27.92;;;11.02;;
50932;SDS011;36921;49.006;9.292;2023-03-05T11:54:18;24.45;;;10.48;;
50932;SDS011;36921;49.006;9.292;2023-03-05T11:56:48;22.33;;;11.45;;
50932;SDS011;36921;49.006;9.292;2023-03-05T11:59:17;26.52;;;10.85;;
50932;SDS011;36921;49.006;9.292;2023-03-05T12:01:48;27.95;;;12.13;;
50932;SDS011;36921;49.006;9.292;2023-03-05T12:04:16;24.48;;;10.50;;
50932;SDS011;36921;49.006;9.292;2023-03-05T12:06:50;27.48;;;11.57;;
50932;SDS011;36921;49.006;9.292;2023-03-05T12:17:58;24.70;;;10.60;;
50932;SDS011;36921;49.006;9.292;2023-03-05T12:23:45;23.33;;;10.52;;
50932;SDS011;36921;49.006;9.292;2023-03-05T12:26:12;21.83;;;10.65;;
50932;SDS011;36921;49.006;9.292;2023-03-05T12:28:51;19.70;;;9.55;;
50932;SDS011;36921;49.006;9.292;2023-03-05T12:31:25;22.25;;;10.65;;
50932;SDS011;36921;49.006;9.292;2023-03-05T12:33:53;22.83;;;10.55;;
50932;SDS011;36921;49.006;9.292;2023-03-05T12:38:47;22.10;;;10.73;;
50932;SDS011;36921;49.006;9.292;2023-03-05T12:44:29;20.67;;;9.85;;
50932;SDS011;36921;49.006;9.292;2023-03-05T12:46:42;19.27;;;9.40;;
50932;SDS011;36921;49.006;9.292;2023-03-05T12:51:53;22.13;;;9.15;;
50932;SDS011;36921;49.006;9.292;2023-03-05T12:59:52;19.83;;;8.45;;
50932;SDS011;36921;49.006;9.292;2023-03-05T13:04:59;18.30;;;9.32;;
50932;SDS011;36921;49.006;9.292;2023-03-05T13:07:38;22.00;;;8.70;;
50932;SDS011;36921;49.006;9.292;2023-03-05T13:10:04;19.33;;;8.48;;
50932;SDS011;36921;49.006;9.292;2023-03-05T13:12:30;20.63;;;8.30;;
50932;SDS011;36921;49.006;9.292;2023-03-05T13:15:03;20.85;;;8.88;;
50932;SDS011;36921;49.006;9.292;2023-03-05T13:17:37;19.30;;;8.88;;
50932;SDS011;36921;49.006;9.292;2023-03-05T13:25:55;16.70;;;8.13;;
50932;SDS011;36921;49.006;9.292;2023-03-05T13:28:23;20.30;;;8.88;;
50932;SDS011;36921;49.006;9.292;2023-03-05T13:30:59;17.20;;;8.63;;
50932;SDS011;36921;49.006;9.292;2023-03-05T13:33:33;19.02;;;8.50;;
50932;SDS011;36921;49.006;9.292;2023-03-05T13:36:00;17.73;;;8.35;;
50932;SDS011;36921;49.006;9.292;2023-03-05T13:38:38;23.10;;;9.32;;
50932;SDS011;36921;49.006;9.292;2023-03-05T13:43:44;17.13;;;8.30;;
50932;SDS011;36921;49.006;9.292;2023-03-05T13:46:21;18.52;;;7.82;;
50932;SDS011;36921;49.006;9.292;2023-03-05T13:48:55;17.50;;;8.65;;
50932;SDS011;36921;49.006;9.292;2023-03-05T13:51:21;26.40;;;8.40;;
50932;SDS011;36921;49.006;9.292;2023-03-05T13:53:46;18.92;;;8.05;;
50932;SDS011;36921;49.006;9.292;2023-03-05T13:56:15;21.48;;;7.78;;
50932;SDS011;36921;49.006;9.292;2023-03-05T13:58:47;17.70;;;7.95;;
50932;SDS011;36921;49.006;9.292;2023-03-05T14:06:33;15.18;;;7.43;;
50932;SDS011;36921;49.006;9.292;2023-03-05T14:09:07;20.40;;;8.05;;
50932;SDS011;36921;49.006;9.292;2023-03-05T14:11:50;17.60;;;7.90;;
50932;SDS011;36921;49.006;9.292;2023-03-05T14:14:28;17.63;;;7.82;;
50932;SDS011;36921;49.006;9.292;2023-03-05T14:16:55;19.17;;;7.78;;
50932;SDS011;36921;49.006;9.292;2023-03-05T14:22:57;17.17;;;7.35;;
50932;SDS011;36921;49.006;9.292;2023-03-05T14:25:32;17.70;;;7.47;;
50932;SDS011;36921;49.006;9.292;2023-03-05T14:28:02;17.90;;;8.70;;
50932;SDS011;36921;49.006;9.292;2023-03-05T14:30:32;19.13;;;8.38;;
50932;SDS011;36921;49.006;9.292;2023-03-05T14:33:00;15.85;;;8.25;;
50932;SDS011;36921;49.006;9.292;2023-03-05T14:35:27;19.65;;;8.43;;
50932;SDS011;36921;49.006;9.292;2023-03-05T14:37:54;17.73;;;8.32;;
50932;SDS011;36921;49.006;9.292;2023-03-05T14:40:22;26.02;;;8.93;;
50932;SDS011;36921;49.006;9.292;2023-03-05T14:42:53;23.85;;;8.88;;
50932;SDS011;36921;49.006;9.292;2023-03-05T14:45:36;19.05;;;9.13;;
50932;SDS011;36921;49.006;9.292;2023-03-05T14:48:04;22.08;;;11.73;;
50932;SDS011;36921;49.006;9.292;2023-03-05T14:50:32;22.60;;;9.95;;
50932;SDS011;36921;49.006;9.292;2023-03-05T14:53:00;19.88;;;10.05;;
50932;SDS011;36921;49.006;9.292;2023-03-05T14:55:28;41.67;;;16.00;;
50932;SDS011;36921;49.006;9.292;2023-03-05T14:58:03;22.88;;;9.70;;
50932;SDS011;36921;49.006;9.292;2023-03-05T15:00:34;17.35;;;8.65;;
50932;SDS011;36921;49.006;9.292;2023-03-05T15:03:00;23.08;;;8.55;;
50932;SDS011;36921;49.006;9.292;2023-03-05T15:05:25;21.92;;;8.75;;
50932;SDS011;36921;49.006;9.292;2023-03-05T15:07:51;21.27;;;8.23;;
50932;SDS011;36921;49.006;9.292;2023-03-05T15:10:18;19.60;;;8.88;;
50932;SDS011;36921;49.006;9.292;2023-03-05T15:12:47;19.02;;;7.97;;
50932;SDS011;36921;49.006;9.292;2023-03-05T15:15:14;15.07;;;7.55;;
50932;SDS011;36921;49.006;9.292;2023-03-05T15:17:45;24.52;;;9.18;;
50932;SDS011;36921;49.006;9.292;2023-03-05T15:20:30;17.48;;;7.45;;
50932;SDS011;36921;49.006;9.292;2023-03-05T15:22:56;18.30;;;6.03;;
50932;SDS011;36921;49.006;9.292;2023-03-05T15:25:22;13.70;;;5.88;;
50932;SDS011;36921;49.006;9.292;2023-03-05T15:27:50;13.48;;;5.68;;
50932;SDS011;36921;49.006;9.292;2023-03-05T15:30:27;14.10;;;5.63;;
50932;SDS011;36921;49.006;9.292;2023-03-05T15:32:59;14.52;;;5.43;;
50932;SDS011;36921;49.006;9.292;2023-03-05T15:35:26;14.65;;;6.05;;
50932;SDS011;36921;49.006;9.292;2023-03-05T15:37:51;8.63;;;4.55;;
50932;SDS011;36921;49.006;9.292;2023-03-05T15:40:17;7.80;;;4.90;;
50932;SDS011;36921;49.006;9.292;2023-03-05T15:42:43;13.63;;;5.68;;
50932;SDS011;36921;49.006;9.292;2023-03-05T15:45:09;8.73;;;4.95;;
50932;SDS011;36921;49.006;9.292;2023-03-05T15:47:34;13.93;;;4.95;;
50932;SDS011;36921;49.006;9.292;2023-03-05T15:50:00;13.13;;;5.30;;
50932;SDS011;36921;49.006;9.292;2023-03-05T15:52:26;11.05;;;4.82;;
50932;SDS011;36921;49.006;9.292;2023-03-05T15:54:51;13.63;;;6.00;;
50932;SDS011;36921;49.006;9.292;2023-03-05T15:57:17;10.25;;;4.63;;
50932;SDS011;36921;49.006;9.292;2023-03-05T15:59:45;12.50;;;5.00;;
50932;SDS011;36921;49.006;9.292;2023-03-05T16:02:11;13.45;;;5.45;;
50932;SDS011;36921;49.006;9.292;2023-03-05T16:04:36;10.38;;;4.88;;
50932;SDS011;36921;49.006;9.292;2023-03-05T16:07:01;12.27;;;5.53;;
50932;SDS011;36921;49.006;9.292;2023-03-05T16:09:29;11.27;;;5.38;;
50932;SDS011;36921;49.006;9.292;2023-03-05T16:11:56;12.38;;;5.07;;
50932;SDS011;36921;49.006;9.292;2023-03-05T16:14:23;14.77;;;5.65;;
50932;SDS011;36921;49.006;9.292;2023-03-05T16:16:51;14.10;;;5.38;;